Terminal Aerodrome Forecast
Issued by NWS

Home | Current Version | Previous Version | Text Only | Print | Product List | Glossary On
Versions: 1 2 3 4 5 6 7 8 9 10 11 12 13 14 15 16 17 18 19 20 21 22 23 24
000
FTUS45 KGJT 222341
TAFASE
TAF
KASE 222341Z 2300/2324 VRB06KT P6SM SCT060 BKN100
     FM230200 20005KT P6SM FEW220
     FM230700 VRB05KT P6SM SCT220
     FM231600 31007KT P6SM SCT250
     FM232000 35006KT P6SM FEW140 BKN220=

USA.gov is the U.S. government's official web portal to all federal, state and local government web resources and services.